West Harrison, Indiana
Current Conditions -  °F | °C
As of 6:15 PM on Saturday 25 Oct 2014 (Local Time) from KI67 Reporting Station
Clear Clear  
Wind Chill: 72°   Ceiling: Unl
Heat Index: 72°   Visibility: 10mi
Dew Point: 52°   Wind: 7mph
Humidity: 50%   Direction: 250°WSW
Pressure: 29.91"   Gusts: NA
Location:  39.26°N, 84.82°W
Report Text: KI67 252215Z AUTO 25006KT 10SM CLR 22/11 A2991 RMK AO1
Loading
Personal Weather Stations






























Interactive Weather Map
Tropical Storm Tracking
New forecast layout! Learn more

10-Day Weather Forecast

Advertisements
Track Severe Weather on mobile